createdAt,value
2019-04-27T00:01:13.776Z,100635.52
2019-04-27T00:03:54.356Z,100633.41
2019-04-27T00:06:26.490Z,100632.34
2019-04-27T00:09:14.489Z,100623.56
2019-04-27T00:11:45.736Z,100618.78
2019-04-27T00:14:18.125Z,100614.55
2019-04-27T00:16:50.909Z,100614.92
2019-04-27T00:19:27.342Z,100611.45
2019-04-27T00:22:08.997Z,100604.90
2019-04-27T00:24:38.519Z,100602.28
2019-04-27T00:27:08.147Z,100596.28
2019-04-27T00:29:37.720Z,100595.14
2019-04-27T00:32:07.390Z,100591.86
2019-04-27T00:34:37.254Z,100591.77
2019-04-27T00:37:06.848Z,100591.37
2019-04-27T00:39:40.664Z,100592.02
2019-04-27T00:42:10.209Z,100588.55
2019-04-27T00:44:39.762Z,100590.31
2019-04-27T00:47:09.298Z,100589.10
2019-04-27T00:49:39.081Z,100580.16
2019-04-27T00:52:08.622Z,100592.04
2019-04-27T00:54:38.138Z,100581.62
2019-04-27T00:57:09.315Z,100579.11
2019-04-27T00:59:56.326Z,100579.56
2019-04-27T01:02:28.452Z,100583.65
2019-04-27T01:04:58.315Z,100585.12
2019-04-27T01:07:28.014Z,100578.27
2019-04-27T01:09:57.591Z,100572.05
2019-04-27T01:12:27.173Z,100577.67
2019-04-27T01:14:56.745Z,100572.59
2019-04-27T01:17:26.282Z,100571.84
2019-04-27T01:19:55.889Z,100563.75
2019-04-27T01:22:25.595Z,100568.68
2019-04-27T01:24:55.139Z,100560.47
2019-04-27T01:27:29.128Z,100557.55
2019-04-27T01:29:59.106Z,100559.62
2019-04-27T01:32:29.251Z,100548.75
2019-04-27T01:34:59.203Z,100548.84
2019-04-27T01:37:29.205Z,100543.52
2019-04-27T01:39:59.099Z,100541.22
2019-04-27T01:42:29.478Z,100537.38
2019-04-27T01:44:59.758Z,100534.86
2019-04-27T01:47:29.306Z,100538.55
2019-04-27T01:49:58.828Z,100527.55
2019-04-27T01:52:29.190Z,100540.69
2019-04-27T01:54:59.652Z,100530.83
2019-04-27T01:57:29.548Z,100534.45
2019-04-27T01:59:59.529Z,100525.94
2019-04-27T02:02:30.916Z,100527.70
2019-04-27T02:05:02.994Z,100522.38
2019-04-27T02:07:32.672Z,100524.23
2019-04-27T02:10:02.345Z,100526.09
2019-04-27T02:12:31.900Z,100525.00
2019-04-27T02:15:01.444Z,100518.70
2019-04-27T02:17:30.968Z,100514.94
2019-04-27T02:20:00.482Z,100514.55
2019-04-27T02:22:30.038Z,100522.39
2019-04-27T02:24:59.591Z,100513.62
2019-04-27T02:27:30.769Z,100508.95
2019-04-27T02:30:07.626Z,100505.23
2019-04-27T02:32:39.688Z,100510.95
2019-04-27T02:35:11.232Z,100502.78
2019-04-27T02:37:40.822Z,100502.47
2019-04-27T02:40:42.348Z,100502.47
2019-04-27T02:43:10.686Z,100501.95
2019-04-27T02:45:40.431Z,100503.27
2019-04-27T02:48:10.115Z,100496.33
2019-04-27T02:50:40.116Z,100490.70
2019-04-27T02:53:11.017Z,100493.72
2019-04-27T02:55:41.401Z,100485.63
2019-04-27T02:58:12.999Z,100490.80
2019-04-27T03:00:42.304Z,100480.19
2019-04-27T03:03:13.816Z,100488.19
2019-04-27T03:05:43.839Z,100489.19
2019-04-27T03:08:13.629Z,100486.27
2019-04-27T03:10:43.175Z,100488.64
2019-04-27T03:13:14.327Z,100487.67
2019-04-27T03:16:01.282Z,100485.42
2019-04-27T03:18:32.858Z,100479.58
2019-04-27T03:21:13.389Z,100481.80
2019-04-27T03:23:43.071Z,100484.95
2019-04-27T03:26:14.261Z,100486.36
2019-04-27T03:28:43.936Z,100481.59
2019-04-27T03:31:14.330Z,100485.41
2019-04-27T03:33:44.315Z,100473.50
2019-04-27T03:36:14.218Z,100478.67
2019-04-27T03:38:43.996Z,100469.12
2019-04-27T03:41:13.809Z,100466.06
2019-04-27T03:43:43.455Z,100465.60
2019-04-27T03:46:12.979Z,100457.37
2019-04-27T03:48:42.589Z,100457.91
2019-04-27T03:51:16.410Z,100456.30
2019-04-27T03:54:02.927Z,100453.23
2019-04-27T03:56:39.377Z,100456.20
2019-04-27T03:59:10.339Z,100443.30
2019-04-27T04:01:41.631Z,100446.30
2019-04-27T04:04:11.235Z,100448.00
2019-04-27T04:06:40.891Z,100449.31
2019-04-27T04:09:10.851Z,100442.30
2019-04-27T04:11:44.998Z,100440.98
2019-04-27T04:14:21.777Z,100440.53
2019-04-27T04:16:52.968Z,100446.15
2019-04-27T04:19:22.685Z,100430.02
2019-04-27T04:21:52.272Z,100431.98
2019-04-27T04:24:21.804Z,100438.38
2019-04-27T04:26:51.432Z,100437.91
2019-04-27T04:29:21.224Z,100433.63
2019-04-27T04:31:51.147Z,100430.16
2019-04-27T04:34:20.760Z,100434.30
2019-04-27T04:36:50.577Z,100436.00
2019-04-27T04:39:20.246Z,100437.22
2019-04-27T04:42:09.955Z,100440.62
2019-04-27T04:44:41.229Z,100433.69
2019-04-27T04:47:13.175Z,100436.70
2019-04-27T04:49:42.887Z,100429.16
2019-04-27T04:52:12.485Z,100437.37
2019-04-27T04:54:42.239Z,100429.83
2019-04-27T04:57:11.859Z,100425.84
2019-04-27T04:59:43.766Z,100427.45
2019-04-27T05:02:12.666Z,100422.98
2019-04-27T05:04:42.272Z,100423.83
2019-04-27T05:07:11.827Z,100420.30
2019-04-27T05:09:41.376Z,100417.53
2019-04-27T05:12:11.016Z,100422.42
2019-04-27T05:14:40.609Z,100414.88
2019-04-27T05:17:10.367Z,100424.01
2019-04-27T05:19:40.467Z,100418.42
2019-04-27T05:22:10.100Z,100415.00
2019-04-27T05:24:39.732Z,100413.46
2019-04-27T05:27:09.390Z,100411.05
2019-04-27T05:29:39.084Z,100417.20
2019-04-27T05:32:09.242Z,100404.91
2019-04-27T05:34:39.470Z,100417.57
2019-04-27T05:37:09.182Z,100417.70
2019-04-27T05:39:39.076Z,100414.86
2019-04-27T05:42:12.445Z,100418.06
2019-04-27T05:45:02.028Z,100423.36
2019-04-27T05:47:48.464Z,100425.42
2019-04-27T05:50:20.128Z,100429.48
2019-04-27T05:52:49.692Z,100426.23
2019-04-27T05:55:19.424Z,100422.67
2019-04-27T05:57:49.149Z,100421.13
2019-04-27T06:00:21.023Z,100417.66
2019-04-27T06:02:50.720Z,100417.86
2019-04-27T06:05:22.727Z,100417.06
2019-04-27T06:07:52.734Z,100419.25
2019-04-27T06:10:22.261Z,100417.59
2019-04-27T06:12:51.826Z,100401.61
2019-04-27T06:15:21.365Z,100408.89
2019-04-27T06:17:51.025Z,100406.28
2019-04-27T06:20:20.561Z,100398.08
2019-04-27T06:22:50.613Z,100402.94
2019-04-27T06:25:21.645Z,100398.37
2019-04-27T06:27:51.433Z,100401.34
2019-04-27T06:30:21.161Z,100395.64
2019-04-27T06:32:50.811Z,100392.66
2019-04-27T06:35:21.651Z,100393.77
2019-04-27T06:37:51.263Z,100391.25
2019-04-27T06:40:20.812Z,100392.95
2019-04-27T06:42:50.329Z,100385.91
2019-04-27T06:45:19.997Z,100388.17
2019-04-27T06:47:51.309Z,100390.44
2019-04-27T06:50:21.027Z,100381.55
2019-04-27T06:52:50.638Z,100379.75
2019-04-27T06:55:20.352Z,100384.53
2019-04-27T06:57:49.905Z,100378.26
2019-04-27T07:00:19.579Z,100375.18
2019-04-27T07:02:49.492Z,100371.61
2019-04-27T07:05:20.421Z,100367.42
2019-04-27T07:07:50.480Z,100369.77
2019-04-27T07:10:20.095Z,100375.68
2019-04-27T07:12:50.187Z,100373.34
2019-04-27T07:15:20.483Z,100368.73
2019-04-27T07:17:50.223Z,100367.14
2019-04-27T07:20:19.759Z,100370.41
2019-04-27T07:22:49.728Z,100368.17
2019-04-27T07:25:19.420Z,100376.14
2019-04-27T07:27:49.488Z,100378.09
2019-04-27T07:30:19.680Z,100371.81
2019-04-27T07:32:49.206Z,100377.59
2019-04-27T07:35:19.681Z,100374.61
2019-04-27T07:37:49.494Z,100375.07
2019-04-27T07:40:19.029Z,100377.86
2019-04-27T07:42:50.226Z,100381.98
2019-04-27T07:45:26.853Z,100378.33
2019-04-27T07:47:56.404Z,100377.64
2019-04-27T07:50:25.946Z,100386.13
2019-04-27T07:52:55.482Z,100386.52
2019-04-27T07:55:25.062Z,100385.31
2019-04-27T07:57:54.673Z,100379.23
2019-04-27T08:00:24.353Z,100373.94
2019-04-27T08:02:54.283Z,100381.16
2019-04-27T08:05:23.814Z,100386.39
2019-04-27T08:07:53.361Z,100379.74
2019-04-27T08:10:22.911Z,100377.88
2019-04-27T08:12:52.439Z,100376.10
2019-04-27T08:15:21.990Z,100377.69
2019-04-27T08:17:51.511Z,100378.22
2019-04-27T08:20:21.345Z,100374.11
2019-04-27T08:22:50.883Z,100377.97
2019-04-27T08:25:22.064Z,100379.06
2019-04-27T08:28:05.166Z,100382.25
2019-04-27T08:30:42.888Z,100379.45
2019-04-27T08:33:14.255Z,100380.66
2019-04-27T08:35:44.006Z,100375.42
2019-04-27T08:38:13.614Z,100388.80
2019-04-27T08:40:43.146Z,100385.09
2019-04-27T08:43:12.692Z,100376.09
2019-04-27T08:45:42.313Z,100375.92
2019-04-27T08:48:11.902Z,100370.12
2019-04-27T08:50:42.137Z,100368.64
2019-04-27T08:53:11.855Z,100369.95
2019-04-27T08:55:41.429Z,100360.84
2019-04-27T08:58:10.953Z,100352.92
2019-04-27T09:00:40.513Z,100353.67
2019-04-27T09:03:10.065Z,100353.39
2019-04-27T09:05:39.601Z,100351.16
2019-04-27T09:08:18.977Z,100350.59
2019-04-27T09:10:50.547Z,100344.05
2019-04-27T09:13:24.395Z,100347.34
2019-04-27T09:15:53.741Z,100341.89
2019-04-27T09:18:24.939Z,100338.63
2019-04-27T09:20:56.108Z,100340.05
2019-04-27T09:23:25.806Z,100332.86
2019-04-27T09:25:55.346Z,100334.63
2019-04-27T09:28:25.063Z,100330.91
2019-04-27T09:30:54.634Z,100336.26
2019-04-27T09:33:24.475Z,100333.00
2019-04-27T09:35:54.024Z,100333.35
2019-04-27T09:38:23.839Z,100329.23
2019-04-27T09:40:53.408Z,100325.41
2019-04-27T09:43:23.023Z,100332.99
2019-04-27T09:45:52.550Z,100325.52
2019-04-27T09:48:22.156Z,100331.47
2019-04-27T09:50:51.945Z,100331.12
2019-04-27T09:53:21.463Z,100327.19
2019-04-27T09:55:51.021Z,100325.67
2019-04-27T09:58:20.574Z,100324.26
2019-04-27T10:00:50.117Z,100322.59
2019-04-27T10:03:19.978Z,100319.48
2019-04-27T10:05:49.797Z,100323.88
2019-04-27T10:08:19.428Z,100315.73
2019-04-27T10:10:49.017Z,100313.67
2019-04-27T10:13:18.827Z,100308.72
2019-04-27T10:15:48.376Z,100311.23
2019-04-27T10:18:18.163Z,100303.47
2019-04-27T10:20:59.172Z,100302.47
2019-04-27T10:23:19.397Z,100300.59
2019-04-27T10:25:48.899Z,100293.41
2019-04-27T10:28:18.421Z,100287.87
2019-04-27T10:30:48.063Z,100289.92
2019-04-27T10:33:18.407Z,100287.97
2019-04-27T10:35:48.041Z,100291.33
2019-04-27T10:38:17.716Z,100285.20
2019-04-27T10:40:47.217Z,100273.01
2019-04-27T10:43:16.741Z,100279.66
2019-04-27T10:45:46.569Z,100278.16
2019-04-27T10:48:17.882Z,100277.41
2019-04-27T10:50:47.371Z,100277.41
2019-04-27T10:53:17.050Z,100284.42
2019-04-27T10:55:46.663Z,100337.02
2019-04-27T10:58:16.595Z,100339.48
2019-04-27T11:00:58.423Z,100339.09
2019-04-27T11:03:46.357Z,100340.50
2019-04-27T11:06:35.701Z,100348.20
2019-04-27T11:09:11.146Z,100351.91
2019-04-27T11:11:43.777Z,100349.30
2019-04-27T11:14:13.397Z,100354.70
2019-04-27T11:16:42.928Z,100353.40
2019-04-27T11:19:12.458Z,100357.50
2019-04-27T11:21:41.985Z,100360.08
2019-04-27T11:24:11.561Z,100360.77
2019-04-27T11:26:41.108Z,100373.38
2019-04-27T11:29:10.698Z,100375.23
2019-04-27T11:31:42.160Z,100373.67
2019-04-27T11:34:11.708Z,100370.16
2019-04-27T11:36:42.896Z,100372.31
2019-04-27T11:39:17.499Z,100375.67
2019-04-27T11:41:46.343Z,100376.51
2019-04-27T11:44:17.058Z,100376.91
2019-04-27T11:46:47.478Z,100370.13
2019-04-27T11:49:17.294Z,100385.36
2019-04-27T11:51:46.839Z,100379.14
2019-04-27T11:54:16.445Z,100372.92
2019-04-27T11:56:47.208Z,100371.08
2019-04-27T11:59:16.811Z,100365.39
2019-04-27T12:01:46.338Z,100374.05
2019-04-27T12:04:16.201Z,100381.43
2019-04-27T12:06:46.294Z,100379.12
2019-04-27T12:09:15.854Z,100377.89
2019-04-27T12:11:45.404Z,100378.51
2019-04-27T12:14:14.931Z,100378.45
2019-04-27T12:16:46.077Z,100386.35
2019-04-27T12:19:16.392Z,100390.17
2019-04-27T12:21:46.428Z,100397.56
2019-04-27T12:24:17.819Z,100390.52
2019-04-27T12:27:01.413Z,100399.56
2019-04-27T12:29:48.873Z,100389.27
2019-04-27T12:32:18.884Z,100413.02
2019-04-27T12:34:48.444Z,100412.03
2019-04-27T12:37:18.018Z,100416.39
2019-04-27T12:39:47.537Z,100415.84
2019-04-27T12:42:17.197Z,100418.06
2019-04-27T12:44:46.716Z,100420.10
2019-04-27T12:47:16.465Z,100418.62
2019-04-27T12:49:46.494Z,100423.56
2019-04-27T12:52:16.012Z,100413.95
2019-04-27T12:54:47.199Z,100413.27
2019-04-27T12:57:21.331Z,100412.36
2019-04-27T12:59:57.948Z,100411.73
2019-04-27T13:02:35.113Z,100405.93
2019-04-27T13:05:07.061Z,100379.37
2019-04-27T13:07:36.610Z,100368.78
2019-04-27T13:10:09.419Z,100369.77
2019-04-27T13:12:48.313Z,100369.16
2019-04-27T13:15:18.403Z,100364.70
2019-04-27T13:17:48.026Z,100368.67
2019-04-27T13:20:18.969Z,100363.84
2019-04-27T13:22:48.555Z,100355.84
2019-04-27T13:25:18.190Z,100355.14
2019-04-27T13:27:48.141Z,100353.59
2019-04-27T13:30:19.647Z,100356.14
2019-04-27T13:32:49.187Z,100338.30
2019-04-27T13:35:18.791Z,100342.91
2019-04-27T13:37:48.331Z,100353.36
2019-04-27T13:40:20.137Z,100358.63
2019-04-27T13:42:57.637Z,100366.87
2019-04-27T13:45:38.183Z,100376.03
2019-04-27T13:48:16.866Z,100368.59
2019-04-27T13:50:50.950Z,100366.89
2019-04-27T13:53:20.657Z,100373.27
2019-04-27T13:55:50.236Z,100371.69
2019-04-27T13:58:19.760Z,100370.49
2019-04-27T14:00:49.295Z,100362.06
2019-04-27T14:03:21.012Z,100361.80
2019-04-27T14:05:50.438Z,100353.88
2019-04-27T14:08:20.002Z,100351.68
2019-04-27T14:10:51.331Z,100350.16
2019-04-27T14:13:20.974Z,100351.70
2019-04-27T14:15:50.650Z,100351.42
2019-04-27T14:18:20.128Z,100358.44
2019-04-27T14:20:49.692Z,100361.17
2019-04-27T14:23:28.339Z,100372.69
2019-04-27T14:25:58.514Z,100376.55
2019-04-27T14:28:29.193Z,100374.08
2019-04-27T14:30:59.118Z,100376.94
2019-04-27T14:33:28.739Z,100368.28
2019-04-27T14:35:59.413Z,100366.70
2019-04-27T14:38:29.171Z,100360.38
2019-04-27T14:40:59.344Z,100357.02
2019-04-27T14:43:28.946Z,100350.66
2019-04-27T14:45:58.554Z,100354.80
2019-04-27T14:48:29.483Z,100341.77
2019-04-27T14:50:59.327Z,100330.48
2019-04-27T14:53:29.107Z,100336.30
2019-04-27T14:55:58.720Z,100333.11
2019-04-27T14:58:28.506Z,100330.59
2019-04-27T15:00:58.648Z,100324.54
2019-04-27T15:03:28.445Z,100328.19
2019-04-27T15:05:57.967Z,100324.97
2019-04-27T15:08:27.498Z,100323.41
2019-04-27T15:10:57.023Z,100322.38
2019-04-27T15:13:26.575Z,100327.63
2019-04-27T15:15:56.097Z,100320.12
2019-04-27T15:18:29.599Z,100329.00
2019-04-27T15:21:02.397Z,100345.70
2019-04-27T15:23:30.876Z,100344.16
2019-04-27T15:26:01.498Z,100329.00
2019-04-27T15:28:32.649Z,100327.30
2019-04-27T15:31:01.940Z,100325.03
2019-04-27T15:33:54.586Z,100323.22
2019-04-27T15:36:39.885Z,100319.63
2019-04-27T15:39:30.485Z,100321.70
2019-04-27T15:42:08.302Z,100327.37
2019-04-27T15:44:41.070Z,100316.50
2019-04-27T15:47:11.950Z,100316.34
2019-04-27T15:49:45.050Z,100319.16
2019-04-27T15:52:11.310Z,100328.87
2019-04-27T15:54:40.846Z,100337.88
2019-04-27T15:57:13.688Z,100344.42
2019-04-27T15:59:41.646Z,100348.95
2019-04-27T16:02:15.275Z,100352.53
2019-04-27T16:04:44.422Z,100359.54
2019-04-27T16:07:18.160Z,100367.45
2019-04-27T16:09:45.601Z,100395.58
2019-04-27T16:12:15.124Z,100416.92
2019-04-27T16:14:44.664Z,100430.36
2019-04-27T16:17:14.193Z,100445.39
2019-04-27T16:19:48.931Z,100442.84
2019-04-27T16:22:15.017Z,100451.28
2019-04-27T16:24:44.554Z,100456.59
2019-04-27T16:27:14.097Z,100464.37
2019-04-27T16:29:43.642Z,100464.58
2019-04-27T16:32:13.181Z,100473.61
2019-04-27T16:34:43.673Z,100476.02
2019-04-27T16:37:18.977Z,100471.16
2019-04-27T16:39:47.885Z,100461.11
2019-04-27T16:42:18.600Z,100465.80
2019-04-27T16:44:51.464Z,100462.48
2019-04-27T16:47:24.343Z,100462.45
2019-04-27T16:49:50.913Z,100470.66
2019-04-27T16:52:20.459Z,100473.67
2019-04-27T16:54:57.016Z,100473.43
2019-04-27T16:57:22.976Z,100478.75
2019-04-27T16:59:57.514Z,100478.41
2019-04-27T17:02:25.337Z,100476.95
2019-04-27T17:04:55.747Z,100478.81
2019-04-27T17:07:30.140Z,100477.75
2019-04-27T17:09:59.441Z,100485.51
2019-04-27T17:12:29.910Z,100481.19
2019-04-27T17:15:05.843Z,100473.11
2019-04-27T17:17:34.664Z,100473.75
2019-04-27T17:20:05.002Z,100482.90
2019-04-27T17:22:34.516Z,100476.27
2019-04-27T17:25:05.684Z,100470.34
2019-04-27T17:27:39.515Z,100470.28
2019-04-27T17:30:10.546Z,100473.66
2019-04-27T17:32:44.653Z,100477.48
2019-04-27T17:35:15.093Z,100481.20
2019-04-27T17:37:44.788Z,100482.41
2019-04-27T17:40:15.485Z,100487.79
2019-04-27T17:42:45.250Z,100490.55
2019-04-27T17:45:15.148Z,100487.58
2019-04-27T17:47:44.672Z,100487.42
2019-04-27T17:50:18.489Z,100491.95
2019-04-27T17:52:49.771Z,100489.69
2019-04-27T17:55:17.840Z,100493.86
2019-04-27T17:57:49.057Z,100493.09
2019-04-27T18:00:19.756Z,100499.55
2019-04-27T18:02:49.324Z,100503.72
2019-04-27T18:05:18.880Z,100507.64
2019-04-27T18:07:48.710Z,100512.56
2019-04-27T18:10:23.866Z,100514.87
2019-04-27T18:12:51.335Z,100509.86
2019-04-27T18:15:21.111Z,100522.48
2019-04-27T18:17:52.431Z,100522.73
2019-04-27T18:20:29.095Z,100527.70
2019-04-27T18:23:03.468Z,100538.17
2019-04-27T18:25:35.633Z,100540.78
2019-04-27T18:28:14.727Z,100542.18
2019-04-27T18:30:46.740Z,100563.22
2019-04-27T18:33:18.118Z,100604.83
2019-04-27T18:35:49.067Z,100598.42
2019-04-27T18:38:18.829Z,100613.02
2019-04-27T18:40:48.807Z,100616.49
2019-04-27T18:43:18.827Z,100624.70
2019-04-27T18:45:48.697Z,100617.69
2019-04-27T18:48:31.872Z,100622.52
2019-04-27T18:51:08.574Z,100625.22
2019-04-27T18:53:38.124Z,100625.62
2019-04-27T18:56:10.332Z,100624.46
2019-04-27T18:58:39.048Z,100628.97
2019-04-27T19:01:08.699Z,100632.80
2019-04-27T19:03:39.130Z,100631.59
2019-04-27T19:06:08.772Z,100633.02
2019-04-27T19:08:38.781Z,100636.16
2019-04-27T19:11:09.306Z,100638.97
2019-04-27T19:13:40.107Z,100633.08
2019-04-27T19:16:09.807Z,100635.81
2019-04-27T19:18:39.885Z,100646.00
2019-04-27T19:21:09.607Z,100639.48
2019-04-27T19:23:40.230Z,100654.80
2019-04-27T19:26:10.028Z,100652.84
2019-04-27T19:28:58.424Z,100653.98
2019-04-27T19:31:32.581Z,100661.32
2019-04-27T19:34:02.089Z,100667.34
2019-04-27T19:36:31.611Z,100671.10
2019-04-27T19:39:01.239Z,100672.56
2019-04-27T19:41:30.814Z,100674.44
2019-04-27T19:44:00.335Z,100675.22
2019-04-27T19:46:30.558Z,100666.94
2019-04-27T19:49:00.349Z,100683.56
2019-04-27T19:51:29.896Z,100678.92
2019-04-27T19:53:59.402Z,100684.54
2019-04-27T19:56:29.175Z,100692.28
2019-04-27T19:59:00.342Z,100691.59
2019-04-27T20:01:31.589Z,100685.44
2019-04-27T20:04:00.882Z,100684.21
2019-04-27T20:06:30.489Z,100674.35
2019-04-27T20:09:04.427Z,100677.37
2019-04-27T20:11:34.047Z,100676.44
2019-04-27T20:14:03.632Z,100686.62
2019-04-27T20:16:33.172Z,100684.91
2019-04-27T20:19:03.051Z,100678.88
2019-04-27T20:21:32.553Z,100684.34
2019-04-27T20:24:02.085Z,100684.30
2019-04-27T20:26:31.608Z,100685.64
2019-04-27T20:29:01.551Z,100681.94
2019-04-27T20:31:32.582Z,100685.84
2019-04-27T20:34:02.551Z,100691.95
2019-04-27T20:36:32.421Z,100677.37
2019-04-27T20:39:02.044Z,100685.44
2019-04-27T20:41:31.944Z,100683.23
2019-04-27T20:44:02.366Z,100680.02
2019-04-27T20:46:32.063Z,100686.48
2019-04-27T20:49:03.229Z,100684.26
2019-04-27T20:51:43.425Z,100693.05
2019-04-27T20:54:11.682Z,100689.55
2019-04-27T20:56:41.226Z,100693.45
2019-04-27T20:59:10.908Z,100690.45
2019-04-27T21:01:40.469Z,100690.33
2019-04-27T21:04:10.976Z,100691.50
2019-04-27T21:06:57.264Z,100690.97
2019-04-27T21:09:26.816Z,100687.63
2019-04-27T21:11:56.592Z,100692.72
2019-04-27T21:14:26.122Z,100693.66
2019-04-27T21:16:55.663Z,100696.97
2019-04-27T21:19:25.201Z,100699.53
2019-04-27T21:21:54.747Z,100699.98
2019-04-27T21:24:24.252Z,100704.86
2019-04-27T21:26:53.797Z,100700.71
2019-04-27T21:29:23.369Z,100700.19
2019-04-27T21:31:52.890Z,100703.65
2019-04-27T21:34:22.505Z,100703.98
2019-04-27T21:36:52.125Z,100708.66
2019-04-27T21:39:21.808Z,100702.67
2019-04-27T21:41:51.872Z,100711.67
2019-04-27T21:44:21.916Z,100713.35
2019-04-27T21:46:52.021Z,100718.45
2019-04-27T21:49:23.043Z,100715.52
2019-04-27T21:52:03.049Z,100715.44
2019-04-27T21:54:34.402Z,100723.09
2019-04-27T21:57:04.108Z,100723.55
2019-04-27T21:59:33.653Z,100722.81
2019-04-27T22:02:04.919Z,100715.71
2019-04-27T22:04:34.448Z,100722.60
2019-04-27T22:07:03.993Z,100718.64
2019-04-27T22:09:33.549Z,100719.88
2019-04-27T22:12:03.248Z,100724.72
2019-04-27T22:14:32.782Z,100717.02
2019-04-27T22:17:02.550Z,100731.16
2019-04-27T22:19:32.091Z,100729.93
2019-04-27T22:22:03.253Z,100720.40
2019-04-27T22:24:34.432Z,100738.86
2019-04-27T22:27:04.032Z,100725.61
2019-04-27T22:29:33.622Z,100734.30
2019-04-27T22:32:03.218Z,100740.73
2019-04-27T22:34:32.818Z,100743.67
2019-04-27T22:37:02.800Z,100737.75
2019-04-27T22:39:36.951Z,100749.41
2019-04-27T22:42:12.107Z,100743.79
2019-04-27T22:44:44.202Z,100752.02
2019-04-27T22:47:13.878Z,100757.97
2019-04-27T22:49:43.478Z,100761.48
2019-04-27T22:52:13.076Z,100758.47
2019-04-27T22:54:42.615Z,100759.32
2019-04-27T22:57:13.784Z,100755.81
2019-04-27T22:59:50.708Z,100765.34
2019-04-27T23:02:29.305Z,100764.05
2019-04-27T23:05:01.956Z,100760.25
2019-04-27T23:07:31.784Z,100765.51
2019-04-27T23:10:01.782Z,100769.50
2019-04-27T23:12:31.808Z,100766.36
2019-04-27T23:15:01.484Z,100765.25
2019-04-27T23:17:35.095Z,100767.34
2019-04-27T23:20:06.625Z,100765.91
2019-04-27T23:22:36.160Z,100764.09
2019-04-27T23:25:08.772Z,100764.05
2019-04-27T23:27:38.341Z,100756.83
2019-04-27T23:30:08.580Z,100758.09
2019-04-27T23:32:45.285Z,100762.00
2019-04-27T23:35:14.999Z,100763.75
2019-04-27T23:37:44.690Z,100760.70
2019-04-27T23:40:14.710Z,100761.55
2019-04-27T23:42:44.261Z,100756.79
2019-04-27T23:45:14.306Z,100755.60
2019-04-27T23:47:43.843Z,100755.94
2019-04-27T23:50:14.203Z,100755.94
2019-04-27T23:53:03.754Z,100756.27
2019-04-27T23:55:34.915Z,100758.09
2019-04-27T23:58:04.616Z,100760.37
